sensor_id;sensor_type;location;lat;lon;timestamp;temperature;humidity
6429;DHT22;3247;48.946;10.220;2023-04-24T00:01:10;9.20;99.90
6429;DHT22;3247;48.946;10.220;2023-04-24T00:03:36;9.20;99.90
6429;DHT22;3247;48.946;10.220;2023-04-24T00:06:02;9.20;99.90
6429;DHT22;3247;48.946;10.220;2023-04-24T00:08:27;9.20;99.90
6429;DHT22;3247;48.946;10.220;2023-04-24T00:10:53;9.10;99.90
6429;DHT22;3247;48.946;10.220;2023-04-24T00:13:18;9.20;99.90
6429;DHT22;3247;48.946;10.220;2023-04-24T00:15:44;9.10;99.90
6429;DHT22;3247;48.946;10.220;2023-04-24T00:18:09;9.10;99.90
6429;DHT22;3247;48.946;10.220;2023-04-24T00:20:35;9.10;99.90
6429;DHT22;3247;48.946;10.220;2023-04-24T00:23:03;9.10;99.90
6429;DHT22;3247;48.946;10.220;2023-04-24T00:25:29;9.10;99.90
6429;DHT22;3247;48.946;10.220;2023-04-24T00:27:54;9.00;99.90
6429;DHT22;3247;48.946;10.220;2023-04-24T00:30:20;9.00;99.90
6429;DHT22;3247;48.946;10.220;2023-04-24T00:32:45;9.10;99.90
6429;DHT22;3247;48.946;10.220;2023-04-24T00:35:11;8.50;99.90
6429;DHT22;3247;48.946;10.220;2023-04-24T00:37:36;8.90;99.90
6429;DHT22;3247;48.946;10.220;2023-04-24T00:40:02;9.10;99.90
6429;DHT22;3247;48.946;10.220;2023-04-24T00:42:28;8.90;99.90
6429;DHT22;3247;48.946;10.220;2023-04-24T00:44:53;8.90;99.90
6429;DHT22;3247;48.946;10.220;2023-04-24T00:47:19;8.90;99.90
6429;DHT22;3247;48.946;10.220;2023-04-24T00:49:45;9.60;99.90
6429;DHT22;3247;48.946;10.220;2023-04-24T00:52:10;8.80;99.90
6429;DHT22;3247;48.946;10.220;2023-04-24T00:54:37;8.80;99.90
6429;DHT22;3247;48.946;10.220;2023-04-24T00:57:03;8.70;99.90
6429;DHT22;3247;48.946;10.220;2023-04-24T00:59:29;8.70;99.90
6429;DHT22;3247;48.946;10.220;2023-04-24T01:01:55;8.70;99.90
6429;DHT22;3247;48.946;10.220;2023-04-24T01:04:21;8.70;99.90
6429;DHT22;3247;48.946;10.220;2023-04-24T01:06:46;8.70;99.90
6429;DHT22;3247;48.946;10.220;2023-04-24T01:09:13;8.70;99.90
6429;DHT22;3247;48.946;10.220;2023-04-24T01:11:40;8.70;99.90
6429;DHT22;3247;48.946;10.220;2023-04-24T01:14:06;8.60;99.90
6429;DHT22;3247;48.946;10.220;2023-04-24T01:16:32;8.60;99.90
6429;DHT22;3247;48.946;10.220;2023-04-24T01:18:57;8.60;99.90
6429;DHT22;3247;48.946;10.220;2023-04-24T01:21:23;8.50;99.90
6429;DHT22;3247;48.946;10.220;2023-04-24T01:23:48;8.60;99.90
6429;DHT22;3247;48.946;10.220;2023-04-24T01:26:16;8.60;99.90
6429;DHT22;3247;48.946;10.220;2023-04-24T01:28:41;8.60;99.90
6429;DHT22;3247;48.946;10.220;2023-04-24T01:31:07;8.60;99.90
6429;DHT22;3247;48.946;10.220;2023-04-24T01:33:32;8.60;99.90
6429;DHT22;3247;48.946;10.220;2023-04-24T01:35:58;8.60;99.90
6429;DHT22;3247;48.946;10.220;2023-04-24T01:38:24;8.60;99.90
6429;DHT22;3247;48.946;10.220;2023-04-24T01:40:49;8.50;99.90
6429;DHT22;3247;48.946;10.220;2023-04-24T01:43:15;8.50;99.90
6429;DHT22;3247;48.946;10.220;2023-04-24T01:45:40;8.60;99.90
6429;DHT22;3247;48.946;10.220;2023-04-24T01:48:06;8.50;99.90
6429;DHT22;3247;48.946;10.220;2023-04-24T01:50:31;8.50;99.90
6429;DHT22;3247;48.946;10.220;2023-04-24T01:52:57;8.50;99.90
6429;DHT22;3247;48.946;10.220;2023-04-24T01:55:22;8.50;99.90
6429;DHT22;3247;48.946;10.220;2023-04-24T01:57:48;8.50;99.90
6429;DHT22;3247;48.946;10.220;2023-04-24T02:00:14;8.50;99.90
6429;DHT22;3247;48.946;10.220;2023-04-24T02:02:39;8.40;99.90
6429;DHT22;3247;48.946;10.220;2023-04-24T02:05:06;8.40;99.90
6429;DHT22;3247;48.946;10.220;2023-04-24T02:07:31;8.40;99.90
6429;DHT22;3247;48.946;10.220;2023-04-24T02:09:58;8.30;99.90
6429;DHT22;3247;48.946;10.220;2023-04-24T02:12:23;8.30;99.90
6429;DHT22;3247;48.946;10.220;2023-04-24T02:14:48;8.30;99.90
6429;DHT22;3247;48.946;10.220;2023-04-24T02:17:14;8.20;99.90
6429;DHT22;3247;48.946;10.220;2023-04-24T02:19:40;8.20;99.90
6429;DHT22;3247;48.946;10.220;2023-04-24T02:22:06;8.20;99.90
6429;DHT22;3247;48.946;10.220;2023-04-24T02:24:31;8.20;99.90
6429;DHT22;3247;48.946;10.220;2023-04-24T02:26:57;8.10;99.90
6429;DHT22;3247;48.946;10.220;2023-04-24T02:29:23;8.00;99.90
6429;DHT22;3247;48.946;10.220;2023-04-24T02:31:48;8.10;99.90
6429;DHT22;3247;48.946;10.220;2023-04-24T02:34:14;8.00;99.90
6429;DHT22;3247;48.946;10.220;2023-04-24T02:36:39;8.00;99.90
6429;DHT22;3247;48.946;10.220;2023-04-24T02:39:05;8.00;99.90
6429;DHT22;3247;48.946;10.220;2023-04-24T02:41:30;8.00;99.90
6429;DHT22;3247;48.946;10.220;2023-04-24T02:43:58;8.00;99.90
6429;DHT22;3247;48.946;10.220;2023-04-24T02:46:23;7.90;99.90
6429;DHT22;3247;48.946;10.220;2023-04-24T02:48:49;7.90;99.90
6429;DHT22;3247;48.946;10.220;2023-04-24T02:51:14;7.90;99.90
6429;DHT22;3247;48.946;10.220;2023-04-24T02:53:40;7.80;99.90
6429;DHT22;3247;48.946;10.220;2023-04-24T02:56:05;7.80;99.90
6429;DHT22;3247;48.946;10.220;2023-04-24T02:58:31;7.80;99.90
6429;DHT22;3247;48.946;10.220;2023-04-24T03:00:56;7.70;99.90
6429;DHT22;3247;48.946;10.220;2023-04-24T03:03:22;7.80;99.90
6429;DHT22;3247;48.946;10.220;2023-04-24T03:05:47;7.70;99.90
6429;DHT22;3247;48.946;10.220;2023-04-24T03:08:13;7.70;99.90
6429;DHT22;3247;48.946;10.220;2023-04-24T03:10:39;7.70;99.90
6429;DHT22;3247;48.946;10.220;2023-04-24T03:13:05;7.70;99.90
6429;DHT22;3247;48.946;10.220;2023-04-24T03:15:30;7.70;99.90
6429;DHT22;3247;48.946;10.220;2023-04-24T03:17:56;7.70;99.90
6429;DHT22;3247;48.946;10.220;2023-04-24T03:20:21;7.70;99.90
6429;DHT22;3247;48.946;10.220;2023-04-24T03:22:47;7.90;99.90
6429;DHT22;3247;48.946;10.220;2023-04-24T03:25:12;7.70;99.90
6429;DHT22;3247;48.946;10.220;2023-04-24T03:27:38;7.70;99.90
6429;DHT22;3247;48.946;10.220;2023-04-24T03:30:05;7.70;99.90
6429;DHT22;3247;48.946;10.220;2023-04-24T03:32:31;7.70;99.90
6429;DHT22;3247;48.946;10.220;2023-04-24T03:34:57;7.70;99.90
6429;DHT22;3247;48.946;10.220;2023-04-24T03:37:23;7.70;99.90
6429;DHT22;3247;48.946;10.220;2023-04-24T03:39:48;7.70;99.90
6429;DHT22;3247;48.946;10.220;2023-04-24T03:42:14;7.70;99.90
6429;DHT22;3247;48.946;10.220;2023-04-24T03:44:39;7.60;99.90
6429;DHT22;3247;48.946;10.220;2023-04-24T03:47:04;7.60;99.90
6429;DHT22;3247;48.946;10.220;2023-04-24T03:49:30;7.60;99.90
6429;DHT22;3247;48.946;10.220;2023-04-24T03:51:55;7.60;99.90
6429;DHT22;3247;48.946;10.220;2023-04-24T03:54:21;7.50;99.90
6429;DHT22;3247;48.946;10.220;2023-04-24T03:56:46;7.50;99.90
6429;DHT22;3247;48.946;10.220;2023-04-24T03:59:12;7.50;99.90
6429;DHT22;3247;48.946;10.220;2023-04-24T04:01:38;7.50;99.90
6429;DHT22;3247;48.946;10.220;2023-04-24T04:04:05;7.20;99.90
6429;DHT22;3247;48.946;10.220;2023-04-24T04:06:31;7.40;99.90
6429;DHT22;3247;48.946;10.220;2023-04-24T04:08:56;7.50;99.90
6429;DHT22;3247;48.946;10.220;2023-04-24T04:11:22;7.50;99.90
6429;DHT22;3247;48.946;10.220;2023-04-24T04:13:47;7.60;99.90
6429;DHT22;3247;48.946;10.220;2023-04-24T04:16:13;7.50;99.90
6429;DHT22;3247;48.946;10.220;2023-04-24T04:18:38;7.60;99.90
6429;DHT22;3247;48.946;10.220;2023-04-24T04:21:04;7.60;99.90
6429;DHT22;3247;48.946;10.220;2023-04-24T04:23:29;7.70;99.90
6429;DHT22;3247;48.946;10.220;2023-04-24T04:25:55;7.60;99.90
6429;DHT22;3247;48.946;10.220;2023-04-24T04:28:20;7.70;99.90
6429;DHT22;3247;48.946;10.220;2023-04-24T04:30:46;7.50;99.90
6429;DHT22;3247;48.946;10.220;2023-04-24T04:33:21;7.50;99.90
6429;DHT22;3247;48.946;10.220;2023-04-24T04:35:47;7.50;99.90
6429;DHT22;3247;48.946;10.220;2023-04-24T04:38:17;7.50;99.90
6429;DHT22;3247;48.946;10.220;2023-04-24T04:40:43;7.50;99.90
6429;DHT22;3247;48.946;10.220;2023-04-24T04:43:09;7.50;99.90
6429;DHT22;3247;48.946;10.220;2023-04-24T04:45:35;7.50;99.90
6429;DHT22;3247;48.946;10.220;2023-04-24T04:48:01;7.50;99.90
6429;DHT22;3247;48.946;10.220;2023-04-24T04:50:28;7.50;99.90
6429;DHT22;3247;48.946;10.220;2023-04-24T04:52:54;7.60;99.90
6429;DHT22;3247;48.946;10.220;2023-04-24T04:55:19;7.60;99.90
6429;DHT22;3247;48.946;10.220;2023-04-24T04:57:45;7.60;99.90
6429;DHT22;3247;48.946;10.220;2023-04-24T05:00:11;7.60;99.90
6429;DHT22;3247;48.946;10.220;2023-04-24T05:02:37;7.70;99.90
6429;DHT22;3247;48.946;10.220;2023-04-24T05:05:03;7.70;99.90
6429;DHT22;3247;48.946;10.220;2023-04-24T05:07:28;7.80;99.90
6429;DHT22;3247;48.946;10.220;2023-04-24T05:09:54;7.80;99.90
6429;DHT22;3247;48.946;10.220;2023-04-24T05:12:19;7.90;99.90
6429;DHT22;3247;48.946;10.220;2023-04-24T05:14:44;7.90;99.90
6429;DHT22;3247;48.946;10.220;2023-04-24T05:17:10;7.90;99.90
6429;DHT22;3247;48.946;10.220;2023-04-24T05:19:36;8.00;99.90
6429;DHT22;3247;48.946;10.220;2023-04-24T05:22:03;8.00;99.90
6429;DHT22;3247;48.946;10.220;2023-04-24T05:24:34;8.10;99.90
6429;DHT22;3247;48.946;10.220;2023-04-24T05:27:00;8.30;99.90
6429;DHT22;3247;48.946;10.220;2023-04-24T05:29:25;8.10;99.90
6429;DHT22;3247;48.946;10.220;2023-04-24T05:31:51;8.20;99.90
6429;DHT22;3247;48.946;10.220;2023-04-24T05:34:17;8.20;99.90
6429;DHT22;3247;48.946;10.220;2023-04-24T05:36:43;8.30;99.90
6429;DHT22;3247;48.946;10.220;2023-04-24T05:39:08;8.40;99.90
6429;DHT22;3247;48.946;10.220;2023-04-24T05:41:34;8.40;99.90
6429;DHT22;3247;48.946;10.220;2023-04-24T05:43:59;8.40;99.90
6429;DHT22;3247;48.946;10.220;2023-04-24T05:46:25;8.60;99.90
6429;DHT22;3247;48.946;10.220;2023-04-24T05:48:50;8.70;99.90
6429;DHT22;3247;48.946;10.220;2023-04-24T05:51:16;8.80;99.90
6429;DHT22;3247;48.946;10.220;2023-04-24T05:53:41;8.80;99.90
6429;DHT22;3247;48.946;10.220;2023-04-24T05:56:06;8.80;99.90
6429;DHT22;3247;48.946;10.220;2023-04-24T05:58:32;8.80;99.90
6429;DHT22;3247;48.946;10.220;2023-04-24T06:00:57;8.80;99.90
6429;DHT22;3247;48.946;10.220;2023-04-24T06:03:24;8.90;99.90
6429;DHT22;3247;48.946;10.220;2023-04-24T06:05:50;8.80;99.90
6429;DHT22;3247;48.946;10.220;2023-04-24T06:08:16;8.80;99.90
6429;DHT22;3247;48.946;10.220;2023-04-24T06:10:41;8.90;99.90
6429;DHT22;3247;48.946;10.220;2023-04-24T06:13:07;8.90;99.90
6429;DHT22;3247;48.946;10.220;2023-04-24T06:15:32;9.00;99.90
6429;DHT22;3247;48.946;10.220;2023-04-24T06:17:58;9.10;99.90
6429;DHT22;3247;48.946;10.220;2023-04-24T06:20:24;9.20;99.90
6429;DHT22;3247;48.946;10.220;2023-04-24T06:22:49;9.20;99.90
6429;DHT22;3247;48.946;10.220;2023-04-24T06:25:15;9.30;99.90
6429;DHT22;3247;48.946;10.220;2023-04-24T06:27:41;9.30;99.90
6429;DHT22;3247;48.946;10.220;2023-04-24T06:30:06;9.40;99.90
6429;DHT22;3247;48.946;10.220;2023-04-24T06:32:32;9.50;99.90
6429;DHT22;3247;48.946;10.220;2023-04-24T06:34:58;9.60;99.90
6429;DHT22;3247;48.946;10.220;2023-04-24T06:37:23;9.70;99.90
6429;DHT22;3247;48.946;10.220;2023-04-24T06:39:49;9.80;99.90
6429;DHT22;3247;48.946;10.220;2023-04-24T06:42:14;10.00;99.90
6429;DHT22;3247;48.946;10.220;2023-04-24T06:44:40;10.20;99.90
6429;DHT22;3247;48.946;10.220;2023-04-24T06:47:08;10.40;99.90
6429;DHT22;3247;48.946;10.220;2023-04-24T06:49:34;10.70;99.90
6429;DHT22;3247;48.946;10.220;2023-04-24T06:52:00;10.70;99.90
6429;DHT22;3247;48.946;10.220;2023-04-24T06:54:25;10.60;99.90
6429;DHT22;3247;48.946;10.220;2023-04-24T06:56:51;10.70;99.90
6429;DHT22;3247;48.946;10.220;2023-04-24T06:59:17;10.60;99.90
6429;DHT22;3247;48.946;10.220;2023-04-24T07:01:46;10.50;99.90
6429;DHT22;3247;48.946;10.220;2023-04-24T07:04:11;10.50;99.90
6429;DHT22;3247;48.946;10.220;2023-04-24T07:06:38;10.50;99.90
6429;DHT22;3247;48.946;10.220;2023-04-24T07:09:04;10.40;99.90
6429;DHT22;3247;48.946;10.220;2023-04-24T07:11:30;10.40;99.90
6429;DHT22;3247;48.946;10.220;2023-04-24T07:13:55;10.40;99.90
6429;DHT22;3247;48.946;10.220;2023-04-24T07:16:21;10.60;99.90
6429;DHT22;3247;48.946;10.220;2023-04-24T07:18:46;10.70;99.90
6429;DHT22;3247;48.946;10.220;2023-04-24T07:21:11;11.00;99.90
6429;DHT22;3247;48.946;10.220;2023-04-24T07:23:37;11.20;99.90
6429;DHT22;3247;48.946;10.220;2023-04-24T07:26:02;11.40;99.90
6429;DHT22;3247;48.946;10.220;2023-04-24T07:28:28;11.80;99.90
6429;DHT22;3247;48.946;10.220;2023-04-24T07:30:56;12.10;99.90
6429;DHT22;3247;48.946;10.220;2023-04-24T07:33:22;12.30;99.90
6429;DHT22;3247;48.946;10.220;2023-04-24T07:35:48;12.40;99.90
6429;DHT22;3247;48.946;10.220;2023-04-24T07:38:13;12.40;99.90
6429;DHT22;3247;48.946;10.220;2023-04-24T07:40:38;12.60;99.90
6429;DHT22;3247;48.946;10.220;2023-04-24T07:43:04;12.90;99.90
6429;DHT22;3247;48.946;10.220;2023-04-24T07:45:30;13.60;99.90
6429;DHT22;3247;48.946;10.220;2023-04-24T07:47:56;14.00;99.90
6429;DHT22;3247;48.946;10.220;2023-04-24T07:50:21;14.40;99.90
6429;DHT22;3247;48.946;10.220;2023-04-24T07:52:47;15.80;99.90
6429;DHT22;3247;48.946;10.220;2023-04-24T07:55:13;17.40;99.90
6429;DHT22;3247;48.946;10.220;2023-04-24T07:57:39;18.50;99.90
6429;DHT22;3247;48.946;10.220;2023-04-24T08:00:04;19.20;99.90
6429;DHT22;3247;48.946;10.220;2023-04-24T08:02:31;18.90;99.90
6429;DHT22;3247;48.946;10.220;2023-04-24T08:04:56;18.80;99.90
6429;DHT22;3247;48.946;10.220;2023-04-24T08:07:22;19.20;99.90
6429;DHT22;3247;48.946;10.220;2023-04-24T08:09:48;19.40;99.90
6429;DHT22;3247;48.946;10.220;2023-04-24T08:12:13;19.80;99.90
6429;DHT22;3247;48.946;10.220;2023-04-24T08:14:39;20.00;99.90
6429;DHT22;3247;48.946;10.220;2023-04-24T08:17:04;19.20;99.90
6429;DHT22;3247;48.946;10.220;2023-04-24T08:19:30;18.00;99.90
6429;DHT22;3247;48.946;10.220;2023-04-24T08:21:55;17.20;99.90
6429;DHT22;3247;48.946;10.220;2023-04-24T08:24:21;17.00;99.90
6429;DHT22;3247;48.946;10.220;2023-04-24T08:26:47;17.60;99.90
6429;DHT22;3247;48.946;10.220;2023-04-24T08:29:15;18.00;99.90
6429;DHT22;3247;48.946;10.220;2023-04-24T08:31:41;17.40;99.90
6429;DHT22;3247;48.946;10.220;2023-04-24T08:34:06;17.40;99.90
6429;DHT22;3247;48.946;10.220;2023-04-24T08:36:32;17.60;99.90
6429;DHT22;3247;48.946;10.220;2023-04-24T08:38:57;17.30;99.90
6429;DHT22;3247;48.946;10.220;2023-04-24T08:41:23;16.90;99.90
6429;DHT22;3247;48.946;10.220;2023-04-24T08:43:51;16.40;99.90
6429;DHT22;3247;48.946;10.220;2023-04-24T08:46:16;16.00;99.90
6429;DHT22;3247;48.946;10.220;2023-04-24T08:48:43;15.30;99.90
6429;DHT22;3247;48.946;10.220;2023-04-24T08:51:09;14.40;99.90
6429;DHT22;3247;48.946;10.220;2023-04-24T08:53:35;14.20;99.90
6429;DHT22;3247;48.946;10.220;2023-04-24T08:56:00;13.80;99.90
6429;DHT22;3247;48.946;10.220;2023-04-24T08:58:26;13.50;99.90
6429;DHT22;3247;48.946;10.220;2023-04-24T09:00:54;13.30;99.90
6429;DHT22;3247;48.946;10.220;2023-04-24T09:03:19;13.30;99.90
6429;DHT22;3247;48.946;10.220;2023-04-24T09:05:46;13.20;99.90
6429;DHT22;3247;48.946;10.220;2023-04-24T09:08:12;13.20;99.90
6429;DHT22;3247;48.946;10.220;2023-04-24T09:10:39;13.20;99.90
6429;DHT22;3247;48.946;10.220;2023-04-24T09:13:05;13.20;99.90
6429;DHT22;3247;48.946;10.220;2023-04-24T09:15:31;13.20;99.90
6429;DHT22;3247;48.946;10.220;2023-04-24T09:17:57;13.40;99.90
6429;DHT22;3247;48.946;10.220;2023-04-24T09:20:22;13.60;99.90
6429;DHT22;3247;48.946;10.220;2023-04-24T09:22:48;13.90;99.90
6429;DHT22;3247;48.946;10.220;2023-04-24T09:25:13;14.20;99.90
6429;DHT22;3247;48.946;10.220;2023-04-24T09:27:42;14.40;99.90
6429;DHT22;3247;48.946;10.220;2023-04-24T09:30:09;14.30;99.90
6429;DHT22;3247;48.946;10.220;2023-04-24T09:32:35;14.30;99.90
6429;DHT22;3247;48.946;10.220;2023-04-24T09:35:10;14.20;99.90
6429;DHT22;3247;48.946;10.220;2023-04-24T09:37:37;13.90;99.90
6429;DHT22;3247;48.946;10.220;2023-04-24T09:40:19;13.80;99.90
6429;DHT22;3247;48.946;10.220;2023-04-24T09:42:46;13.50;99.90
6429;DHT22;3247;48.946;10.220;2023-04-24T09:45:12;13.20;99.90
6429;DHT22;3247;48.946;10.220;2023-04-24T09:47:40;13.00;99.90
6429;DHT22;3247;48.946;10.220;2023-04-24T09:50:24;13.00;99.90
6429;DHT22;3247;48.946;10.220;2023-04-24T09:52:57;13.00;99.90
6429;DHT22;3247;48.946;10.220;2023-04-24T09:55:22;13.10;99.90
6429;DHT22;3247;48.946;10.220;2023-04-24T09:57:48;13.30;99.90
6429;DHT22;3247;48.946;10.220;2023-04-24T10:00:21;14.00;99.90
6429;DHT22;3247;48.946;10.220;2023-04-24T10:02:49;14.20;99.90
6429;DHT22;3247;48.946;10.220;2023-04-24T10:05:14;14.40;99.90
6429;DHT22;3247;48.946;10.220;2023-04-24T10:07:40;14.30;99.90
6429;DHT22;3247;48.946;10.220;2023-04-24T10:10:06;14.60;99.90
6429;DHT22;3247;48.946;10.220;2023-04-24T10:12:31;14.70;99.90
6429;DHT22;3247;48.946;10.220;2023-04-24T10:14:57;14.70;99.90
6429;DHT22;3247;48.946;10.220;2023-04-24T10:17:23;14.80;99.90
6429;DHT22;3247;48.946;10.220;2023-04-24T10:19:51;15.00;99.90
6429;DHT22;3247;48.946;10.220;2023-04-24T10:22:16;15.00;99.90
6429;DHT22;3247;48.946;10.220;2023-04-24T10:24:42;15.20;99.90
6429;DHT22;3247;48.946;10.220;2023-04-24T10:27:08;15.20;99.90
6429;DHT22;3247;48.946;10.220;2023-04-24T10:29:34;15.20;99.90
6429;DHT22;3247;48.946;10.220;2023-04-24T10:32:06;15.30;99.90
6429;DHT22;3247;48.946;10.220;2023-04-24T10:34:31;15.30;99.90
6429;DHT22;3247;48.946;10.220;2023-04-24T10:36:57;15.10;99.90
6429;DHT22;3247;48.946;10.220;2023-04-24T10:39:22;14.70;99.90
6429;DHT22;3247;48.946;10.220;2023-04-24T10:41:48;14.70;99.90
6429;DHT22;3247;48.946;10.220;2023-04-24T10:44:14;14.60;99.90
6429;DHT22;3247;48.946;10.220;2023-04-24T10:46:44;14.80;99.90
6429;DHT22;3247;48.946;10.220;2023-04-24T10:49:10;15.00;99.90
6429;DHT22;3247;48.946;10.220;2023-04-24T10:51:48;14.90;99.90
6429;DHT22;3247;48.946;10.220;2023-04-24T10:56:49;13.90;99.90
6429;DHT22;3247;48.946;10.220;2023-04-24T10:59:23;13.60;99.90
6429;DHT22;3247;48.946;10.220;2023-04-24T11:01:52;13.30;99.90
6429;DHT22;3247;48.946;10.220;2023-04-24T11:04:26;13.30;99.90
6429;DHT22;3247;48.946;10.220;2023-04-24T11:06:53;13.30;99.90
6429;DHT22;3247;48.946;10.220;2023-04-24T11:09:19;13.40;99.90
6429;DHT22;3247;48.946;10.220;2023-04-24T11:11:46;13.50;99.90
6429;DHT22;3247;48.946;10.220;2023-04-24T11:14:15;13.90;99.90
6429;DHT22;3247;48.946;10.220;2023-04-24T11:19:10;14.20;99.90
6429;DHT22;3247;48.946;10.220;2023-04-24T11:24:26;14.30;99.90
6429;DHT22;3247;48.946;10.220;2023-04-24T11:26:56;14.20;99.90
6429;DHT22;3247;48.946;10.220;2023-04-24T11:29:23;13.90;99.90
6429;DHT22;3247;48.946;10.220;2023-04-24T11:32:14;13.70;99.90
6429;DHT22;3247;48.946;10.220;2023-04-24T11:34:39;13.50;99.90
6429;DHT22;3247;48.946;10.220;2023-04-24T11:37:05;13.30;99.90
6429;DHT22;3247;48.946;10.220;2023-04-24T11:39:36;13.30;99.90
6429;DHT22;3247;48.946;10.220;2023-04-24T11:42:04;13.20;99.90
6429;DHT22;3247;48.946;10.220;2023-04-24T11:44:31;13.30;99.90
6429;DHT22;3247;48.946;10.220;2023-04-24T11:46:58;13.40;99.90
6429;DHT22;3247;48.946;10.220;2023-04-24T11:49:24;13.40;99.90
6429;DHT22;3247;48.946;10.220;2023-04-24T11:51:49;13.40;99.90
6429;DHT22;3247;48.946;10.220;2023-04-24T11:54:15;13.50;99.90
6429;DHT22;3247;48.946;10.220;2023-04-24T11:56:44;13.50;99.90
6429;DHT22;3247;48.946;10.220;2023-04-24T11:59:10;13.60;99.90
6429;DHT22;3247;48.946;10.220;2023-04-24T12:04:10;13.70;99.90
6429;DHT22;3247;48.946;10.220;2023-04-24T12:06:36;13.60;99.90
6429;DHT22;3247;48.946;10.220;2023-04-24T12:09:02;13.80;99.90
6429;DHT22;3247;48.946;10.220;2023-04-24T12:11:27;14.00;99.90
6429;DHT22;3247;48.946;10.220;2023-04-24T12:13:53;14.10;99.90
6429;DHT22;3247;48.946;10.220;2023-04-24T12:16:18;14.00;99.90
6429;DHT22;3247;48.946;10.220;2023-04-24T12:18:44;14.10;99.90
6429;DHT22;3247;48.946;10.220;2023-04-24T12:21:14;14.10;99.90
6429;DHT22;3247;48.946;10.220;2023-04-24T12:23:42;14.10;99.90
6429;DHT22;3247;48.946;10.220;2023-04-24T12:26:07;14.10;99.90
6429;DHT22;3247;48.946;10.220;2023-04-24T12:28:36;14.00;99.90
6429;DHT22;3247;48.946;10.220;2023-04-24T12:31:07;13.90;99.90
6429;DHT22;3247;48.946;10.220;2023-04-24T12:33:33;14.10;99.90
6429;DHT22;3247;48.946;10.220;2023-04-24T12:35:59;14.20;99.90
6429;DHT22;3247;48.946;10.220;2023-04-24T12:38:25;14.20;99.90
6429;DHT22;3247;48.946;10.220;2023-04-24T12:41:04;14.20;99.90
6429;DHT22;3247;48.946;10.220;2023-04-24T12:43:30;14.10;99.90
6429;DHT22;3247;48.946;10.220;2023-04-24T12:45:55;13.90;99.90
6429;DHT22;3247;48.946;10.220;2023-04-24T12:48:21;13.70;99.90
6429;DHT22;3247;48.946;10.220;2023-04-24T12:50:47;13.30;99.90
6429;DHT22;3247;48.946;10.220;2023-04-24T12:53:13;13.20;99.90
6429;DHT22;3247;48.946;10.220;2023-04-24T12:55:38;13.20;99.90
6429;DHT22;3247;48.946;10.220;2023-04-24T12:58:04;13.20;99.90
6429;DHT22;3247;48.946;10.220;2023-04-24T13:00:29;13.40;99.90
6429;DHT22;3247;48.946;10.220;2023-04-24T13:02:55;13.50;99.90
6429;DHT22;3247;48.946;10.220;2023-04-24T13:05:20;13.70;99.90
6429;DHT22;3247;48.946;10.220;2023-04-24T13:07:46;13.80;99.90
6429;DHT22;3247;48.946;10.220;2023-04-24T13:10:11;13.80;99.90
6429;DHT22;3247;48.946;10.220;2023-04-24T13:12:38;13.90;99.90
6429;DHT22;3247;48.946;10.220;2023-04-24T13:15:04;13.90;99.90
6429;DHT22;3247;48.946;10.220;2023-04-24T13:17:30;13.60;99.90
6429;DHT22;3247;48.946;10.220;2023-04-24T13:19:55;13.60;99.90
6429;DHT22;3247;48.946;10.220;2023-04-24T13:22:21;13.70;99.90
6429;DHT22;3247;48.946;10.220;2023-04-24T13:24:46;13.70;99.90
6429;DHT22;3247;48.946;10.220;2023-04-24T13:27:14;13.60;99.90
6429;DHT22;3247;48.946;10.220;2023-04-24T13:29:39;13.70;99.90
6429;DHT22;3247;48.946;10.220;2023-04-24T13:32:05;13.80;99.90
6429;DHT22;3247;48.946;10.220;2023-04-24T13:34:31;13.90;99.90
6429;DHT22;3247;48.946;10.220;2023-04-24T13:36:56;13.90;99.90
6429;DHT22;3247;48.946;10.220;2023-04-24T13:39:22;14.10;99.90
6429;DHT22;3247;48.946;10.220;2023-04-24T13:41:48;14.10;99.90
6429;DHT22;3247;48.946;10.220;2023-04-24T13:44:14;14.10;99.90
6429;DHT22;3247;48.946;10.220;2023-04-24T13:46:40;14.20;99.90
6429;DHT22;3247;48.946;10.220;2023-04-24T13:49:05;14.30;99.90
6429;DHT22;3247;48.946;10.220;2023-04-24T13:51:31;14.20;99.90
6429;DHT22;3247;48.946;10.220;2023-04-24T13:53:56;14.20;99.90
6429;DHT22;3247;48.946;10.220;2023-04-24T13:56:22;14.20;99.90
6429;DHT22;3247;48.946;10.220;2023-04-24T13:58:47;14.10;99.90
6429;DHT22;3247;48.946;10.220;2023-04-24T14:01:13;13.90;99.90
6429;DHT22;3247;48.946;10.220;2023-04-24T14:03:38;13.70;99.90
6429;DHT22;3247;48.946;10.220;2023-04-24T14:06:04;13.50;99.90
6429;DHT22;3247;48.946;10.220;2023-04-24T14:08:29;13.10;99.90
6429;DHT22;3247;48.946;10.220;2023-04-24T14:10:55;12.90;99.90
6429;DHT22;3247;48.946;10.220;2023-04-24T14:13:20;12.60;99.90
6429;DHT22;3247;48.946;10.220;2023-04-24T14:15:47;12.50;99.90
6429;DHT22;3247;48.946;10.220;2023-04-24T14:18:12;12.50;99.90
6429;DHT22;3247;48.946;10.220;2023-04-24T14:20:38;12.60;99.90
6429;DHT22;3247;48.946;10.220;2023-04-24T14:23:03;12.80;99.90
6429;DHT22;3247;48.946;10.220;2023-04-24T14:25:29;13.00;99.90
6429;DHT22;3247;48.946;10.220;2023-04-24T14:27:55;13.20;99.90
6429;DHT22;3247;48.946;10.220;2023-04-24T14:30:20;13.20;99.90
6429;DHT22;3247;48.946;10.220;2023-04-24T14:32:46;13.20;99.90
6429;DHT22;3247;48.946;10.220;2023-04-24T14:35:12;13.10;99.90
6429;DHT22;3247;48.946;10.220;2023-04-24T14:37:37;13.10;99.90
6429;DHT22;3247;48.946;10.220;2023-04-24T14:40:03;13.10;99.90
6429;DHT22;3247;48.946;10.220;2023-04-24T14:42:30;13.00;99.90
6429;DHT22;3247;48.946;10.220;2023-04-24T14:44:56;13.00;99.90
6429;DHT22;3247;48.946;10.220;2023-04-24T14:47:21;12.80;99.90
6429;DHT22;3247;48.946;10.220;2023-04-24T14:49:47;12.80;99.90
6429;DHT22;3247;48.946;10.220;2023-04-24T14:52:13;12.80;99.90
6429;DHT22;3247;48.946;10.220;2023-04-24T14:54:38;12.80;99.90
6429;DHT22;3247;48.946;10.220;2023-04-24T14:57:03;12.70;99.90
6429;DHT22;3247;48.946;10.220;2023-04-24T14:59:29;12.60;99.90
6429;DHT22;3247;48.946;10.220;2023-04-24T15:02:01;12.50;99.90
6429;DHT22;3247;48.946;10.220;2023-04-24T15:04:27;12.50;99.90
6429;DHT22;3247;48.946;10.220;2023-04-24T15:06:53;12.50;99.90
6429;DHT22;3247;48.946;10.220;2023-04-24T15:09:22;12.50;99.90
6429;DHT22;3247;48.946;10.220;2023-04-24T15:11:49;12.50;99.90
6429;DHT22;3247;48.946;10.220;2023-04-24T15:14:15;12.50;99.90
6429;DHT22;3247;48.946;10.220;2023-04-24T15:16:40;12.50;99.90
6429;DHT22;3247;48.946;10.220;2023-04-24T15:19:06;12.60;99.90
6429;DHT22;3247;48.946;10.220;2023-04-24T15:21:31;12.70;99.90
6429;DHT22;3247;48.946;10.220;2023-04-24T15:23:57;12.70;99.90
6429;DHT22;3247;48.946;10.220;2023-04-24T15:26:23;12.80;99.90
6429;DHT22;3247;48.946;10.220;2023-04-24T15:28:48;13.00;99.90
6429;DHT22;3247;48.946;10.220;2023-04-24T15:31:14;13.10;99.90
6429;DHT22;3247;48.946;10.220;2023-04-24T15:33:39;13.20;99.90
6429;DHT22;3247;48.946;10.220;2023-04-24T15:36:05;13.20;99.90
6429;DHT22;3247;48.946;10.220;2023-04-24T15:38:30;13.30;99.90
6429;DHT22;3247;48.946;10.220;2023-04-24T15:40:56;13.20;99.90
6429;DHT22;3247;48.946;10.220;2023-04-24T15:43:21;13.10;99.90
6429;DHT22;3247;48.946;10.220;2023-04-24T15:45:50;12.90;99.90
6429;DHT22;3247;48.946;10.220;2023-04-24T15:48:16;12.90;99.90
6429;DHT22;3247;48.946;10.220;2023-04-24T15:50:41;12.70;99.90
6429;DHT22;3247;48.946;10.220;2023-04-24T15:53:07;12.60;99.90
6429;DHT22;3247;48.946;10.220;2023-04-24T15:55:33;12.50;99.90